LRFT - airport unknown

Compiled: 11:37:53 on 21/04/2018

Latest METAR/SPECI Reports

METAR LRFT 200900Z 35014G24KT 9999 BKN050 13/05 Q1020 BLU BLU=

Previous reports

METAR LRFT 200800Z 35014G24KT 9999 SCT100 14/06 Q1020 BLU BLU=
METAR LRFT 200700Z 33014G24KT 9999 SCT100 14/08 Q1019 BLU BLU=
METAR LRFT 200600Z 36014G24KT 9999 SCT030 13/07 Q1019 BLU BLU=
METAR LRFT 200500Z 32014KT 9999 SCT100 11/08 Q1018 BLU BLU=

Latest TAF report

TAF LRFT 200500Z 2006/2106 32014KT 9999 SCT100 BECMG 2010/2012 36015G25KT BKN050=

Valid WARNINGS

No valid warnings for LRFT